Terminal Aerodrome Forecast
Issued by NWS Knoxville/Tri Cities, TN

Home | Current Version | Previous Version | Text Only | Print | Product List | Glossary On
Versions: 1 2 3 4 5 6 7 8 9 10 11 12 13 14 15 16 17 18 19 20 21 22 23 24 25 26 27 28 29 30 31 32
000
FTUS44 KMRX 260536
TAFTRI
TAF
KTRI 260536Z 2606/2706 VRB03KT P6SM -SHRA SCT025 OVC040
     FM260930 VRB04KT P6SM -RA BKN025
     FM261130 24006KT 5SM -SHRASN BR SCT007 OVC015
     FM261700 28010G16KT P6SM OVC015
     FM262100 28010KT P6SM OVC025
     FM270200 28006KT P6SM BKN025=

USA.gov is the U.S. government's official web portal to all federal, state and local government web resources and services.